Time;durP1;ratioP1;P1;durP2;ratioP2;P2;SDS_P1;SDS_P2;PMS_P1;PMS_P2;Temp;Humidity;BMP_temperature;BMP_pressure;BME280_temperature;BME280_humidity;BME280_pressure;Samples;Min_cycle;Max_cycle;Signal;HPM_P1;HPM_P2
2022/04/24 00:01:07;;;;;;;6.47;4.23;;;;;;;13.11;45.92;100063.84;5255294;28;20021;-76
2022/04/24 00:03:38;;;;;;;5.57;3.87;;;;;;;12.91;46.31;100058.44;5255299;28;20052;-77
2022/04/24 00:06:10;;;;;;;5.43;4.60;;;;;;;12.74;47.14;100059.88;5255749;28;20142;-75
2022/04/24 00:08:41;;;;;;;7.43;4.53;;;;;;;12.67;47.02;100057.50;5256212;28;20436;-75
2022/04/24 00:11:13;;;;;;;7.10;5.33;;;;;;;12.66;47.31;100056.66;5254848;28;20076;-76
2022/04/24 00:13:44;;;;;;;7.67;5.27;;;;;;;12.60;47.39;100049.03;5254464;28;20766;-76
2022/04/24 00:16:15;;;;;;;6.60;4.00;;;;;;;12.51;47.71;100051.94;5254815;28;20371;-76
2022/04/24 00:18:47;;;;;;;5.63;4.40;;;;;;;12.43;47.96;100059.16;5254579;28;20853;-77
2022/04/24 00:21:18;;;;;;;6.30;4.50;;;;;;;12.35;48.26;100052.44;5253321;28;20052;-76
2022/04/24 00:23:49;;;;;;;5.87;4.40;;;;;;;12.15;49.43;100049.59;5254861;28;20529;-77
2022/04/24 00:26:21;;;;;;;5.90;4.63;;;;;;;12.19;48.65;100051.22;5236369;28;20559;-75
2022/04/24 00:28:53;;;;;;;6.67;4.10;;;;;;;11.96;49.56;100047.56;5254878;28;20104;-76
2022/04/24 00:31:25;;;;;;;6.57;5.20;;;;;;;11.90;49.71;100039.00;5254056;28;20225;-76
2022/04/24 00:33:56;;;;;;;5.30;4.73;;;;;;;11.76;50.44;100032.44;5254660;28;20054;-76
2022/04/24 00:36:27;;;;;;;9.60;4.50;;;;;;;11.63;50.48;100038.94;5254900;28;20493;-76
2022/04/24 00:38:59;;;;;;;6.80;5.43;;;;;;;11.43;51.05;100037.75;5253670;28;20064;-75
2022/04/24 00:41:30;;;;;;;6.83;4.90;;;;;;;11.46;51.31;100032.44;5254539;28;20064;-77
2022/04/24 00:44:02;;;;;;;5.70;4.70;;;;;;;11.37;51.37;100035.31;5254806;28;20051;-76
2022/04/24 00:46:43;;;;;;;10.67;5.40;;;;;;;11.16;52.72;100043.72;5254692;28;20035;-77
2022/04/24 00:49:14;;;;;;;5.78;4.75;;;;;;;11.18;52.11;100039.34;5253696;28;20033;-76
2022/04/24 00:51:45;;;;;;;7.27;4.90;;;;;;;11.10;52.66;100037.78;5254509;28;20032;-76
2022/04/24 00:54:17;;;;;;;8.03;5.30;;;;;;;10.99;53.06;100042.41;5254626;28;20043;-76
2022/04/24 00:56:49;;;;;;;9.93;4.90;;;;;;;10.88;53.30;100034.91;5254641;28;20112;-76
2022/04/24 00:59:20;;;;;;;11.53;5.50;;;;;;;10.90;53.51;100034.81;5253735;28;20475;-75
2022/04/24 01:01:51;;;;;;;8.03;4.77;;;;;;;10.79;53.75;100039.47;5253676;28;20025;-76
2022/04/24 01:04:23;;;;;;;8.70;5.47;;;;;;;10.79;54.11;100048.16;5254432;28;20033;-76
2022/04/24 01:06:54;;;;;;;5.57;4.73;;;;;;;10.84;53.47;100040.22;5254094;28;20041;-76
2022/04/24 01:09:27;;;;;;;7.27;5.47;;;;;;;10.76;53.99;100035.22;5236491;28;20182;-76
2022/04/24 01:11:58;;;;;;;;;;;;;;;10.68;52.25;100038.00;5254159;28;20430;-74
2022/04/24 01:14:31;;;;;;;7.13;5.55;;;;;;;10.47;54.92;100038.53;5254343;28;19921;-76
2022/04/24 01:17:05;;;;;;;6.65;5.43;;;;;;;10.45;55.00;100043.78;5253458;28;20029;-76
2022/04/24 01:19:37;;;;;;;6.15;5.13;;;;;;;10.31;55.12;100046.69;5253880;28;20041;-76
2022/04/24 01:22:08;;;;;;;6.55;5.15;;;;;;;10.32;56.33;100044.91;5254164;28;20035;-75
2022/04/24 01:24:40;;;;;;;6.07;5.47;;;;;;;10.25;56.29;100044.22;5254005;28;20029;-76
2022/04/24 01:27:11;;;;;;;7.83;5.20;;;;;;;10.29;56.49;100052.81;5254343;28;20737;-76
2022/04/24 01:29:43;;;;;;;5.50;5.00;;;;;;;10.31;56.07;100048.44;5252241;28;20411;-77
2022/04/24 01:32:14;;;;;;;7.70;5.83;;;;;;;10.21;56.06;100046.03;5254170;28;20098;-75
2022/04/24 01:34:45;;;;;;;8.27;5.90;;;;;;;10.11;56.46;100048.88;5254230;28;20021;-77
2022/04/24 01:37:17;;;;;;;9.90;5.77;;;;;;;10.07;57.04;100042.91;5254875;28;20021;-76
2022/04/24 01:39:48;;;;;;;6.43;5.27;;;;;;;10.01;57.06;100048.22;5257062;28;20044;-77
2022/04/24 01:42:20;;;;;;;7.10;6.20;;;;;;;9.98;57.19;100040.50;5256109;28;20057;-76
2022/04/24 01:44:51;;;;;;;6.87;6.00;;;;;;;10.02;56.83;100043.00;5257727;28;20445;-77
2022/04/24 01:47:22;;;;;;;7.00;5.27;;;;;;;10.06;56.51;100041.16;5258473;28;20044;-77
2022/04/24 01:49:53;;;;;;;7.77;5.93;;;;;;;10.03;56.92;100044.72;5256429;28;20472;-76
2022/04/24 01:52:25;;;;;;;7.03;6.07;;;;;;;10.10;56.93;100050.63;5257472;28;20104;-77
2022/04/24 01:54:56;;;;;;;7.83;6.00;;;;;;;9.97;57.54;100050.06;5257472;28;20059;-76
2022/04/24 01:57:28;;;;;;;7.43;5.70;;;;;;;9.95;57.63;100043.16;5258176;28;20112;-77
2022/04/24 01:59:59;;;;;;;6.23;5.57;;;;;;;9.95;57.10;100048.38;5256576;28;20036;-74
2022/04/24 02:02:30;;;;;;;7.30;6.03;;;;;;;9.91;57.02;100042.38;5257628;28;20061;-76
2022/04/24 02:05:02;;;;;;;6.80;5.50;;;;;;;9.80;57.83;100044.34;5257245;28;20032;-76
2022/04/24 02:07:33;;;;;;;8.50;5.60;;;;;;;9.75;57.97;100041.84;5257460;28;20021;-76
2022/04/24 02:10:05;;;;;;;7.53;5.73;;;;;;;9.66;58.00;100042.06;5256827;28;20028;-76
2022/04/24 02:12:40;;;;;;;7.70;5.60;;;;;;;9.66;58.07;100044.66;5257791;28;20076;-76
2022/04/24 02:15:11;;;;;;;7.43;5.10;;;;;;;9.78;57.61;100047.00;5257195;28;20037;-76
2022/04/24 02:17:42;;;;;;;7.33;5.57;;;;;;;9.66;57.80;100036.88;5259702;28;20040;-77
2022/04/24 02:20:14;;;;;;;5.87;5.13;;;;;;;9.71;57.88;100029.81;5256778;28;20032;-76
2022/04/24 02:22:45;;;;;;;9.17;5.83;;;;;;;9.60;58.86;100045.63;5256699;28;20047;-77
2022/04/24 02:25:17;;;;;;;9.37;5.60;;;;;;;9.61;58.45;100049.09;5257095;28;20472;-76
2022/04/24 02:27:49;;;;;;;6.47;5.65;;;;;;;9.66;58.31;100042.06;5257378;28;20098;-76
2022/04/24 02:30:22;;;;;;;6.77;6.07;;;;;;;9.77;58.08;100044.41;5257032;28;20037;-76
2022/04/24 02:32:57;;;;;;;8.82;5.60;;;;;;;9.72;57.95;100041.91;5255988;28;20499;-75
2022/04/24 02:35:30;;;;;;;9.23;5.82;;;;;;;9.82;57.73;100040.84;5256923;28;20326;-76
2022/04/24 02:38:01;;;;;;;6.43;5.70;;;;;;;9.83;57.88;100042.53;5255024;28;20080;-76
2022/04/24 02:40:34;;;;;;;8.70;5.87;;;;;;;9.86;58.36;100039.03;5236608;28;20041;-76
2022/04/24 02:43:05;;;;;;;6.68;5.97;;;;;;;9.79;58.06;100040.91;5236214;28;20425;-76
2022/04/24 02:45:37;;;;;;;7.70;6.47;;;;;;;9.92;57.43;100049.31;5236246;28;20032;-75
2022/04/24 02:48:08;;;;;;;12.30;6.10;;;;;;;9.97;57.81;100047.44;5235505;28;20108;-76
2022/04/24 02:50:40;;;;;;;6.90;5.67;;;;;;;9.91;57.50;100042.38;5218511;28;20061;-75
2022/04/24 02:53:11;;;;;;;8.43;6.20;;;;;;;9.90;57.99;100045.88;5256734;28;20021;-76
2022/04/24 02:55:43;;;;;;;10.67;7.17;;;;;;;9.93;57.75;100045.78;5256554;28;20110;-76
2022/04/24 02:58:14;;;;;;;7.37;6.40;;;;;;;10.02;57.37;100055.16;5256631;28;20572;-76
2022/04/24 03:00:50;;;;;;;7.77;6.97;;;;;;;10.00;57.38;100050.00;5255568;28;20036;-77
2022/04/24 03:03:22;;;;;;;7.05;6.35;;;;;;;10.01;57.17;100054.31;5256520;28;20032;-76
2022/04/24 03:05:53;;;;;;;6.85;6.15;;;;;;;9.96;57.35;100044.88;5256499;28;20028;-76
2022/04/24 03:08:25;;;;;;;6.97;6.17;;;;;;;9.90;57.93;100045.88;5256523;28;20593;-76
2022/04/24 03:10:56;;;;;;;7.57;6.80;;;;;;;9.97;57.57;100051.81;5254057;28;20064;-76
2022/04/24 03:13:27;;;;;;;7.53;6.73;;;;;;;9.97;57.62;100054.41;5256359;28;20021;-76
2022/04/24 03:15:59;;;;;;;8.50;6.40;;;;;;;9.90;57.79;100052.81;5256037;28;20025;-76
2022/04/24 03:18:30;;;;;;;7.97;7.07;;;;;;;9.81;57.95;100052.13;5256136;28;20035;-77
2022/04/24 03:21:01;;;;;;;7.37;6.67;;;;;;;9.77;58.13;100053.09;5254172;28;20028;-77
2022/04/24 03:23:33;;;;;;;9.13;6.53;;;;;;;9.78;58.42;100051.34;5256065;28;20056;-76
2022/04/24 03:26:04;;;;;;;8.17;7.27;;;;;;;9.72;58.30;100056.69;5255958;28;20032;-76
2022/04/24 03:28:35;;;;;;;10.80;6.97;;;;;;;9.60;58.73;100052.59;5255850;28;20040;-77
2022/04/24 03:31:07;;;;;;;8.13;6.97;;;;;;;9.46;59.27;100052.88;5255397;28;20037;-76
2022/04/24 03:33:38;;;;;;;8.17;6.77;;;;;;;9.46;59.12;100063.28;5254523;28;20460;-77
2022/04/24 03:36:09;;;;;;;10.00;7.83;;;;;;;9.35;59.31;100058.25;5256173;28;20025;-76
2022/04/24 03:38:41;;;;;;;12.17;8.23;;;;;;;9.29;59.93;100056.66;5255947;28;22019;-76
2022/04/24 03:41:12;;;;;;;9.47;7.60;;;;;;;9.15;60.54;100060.41;5255365;28;20453;-77
2022/04/24 03:43:44;;;;;;;7.90;7.10;;;;;;;9.05;60.69;100057.97;5248331;28;20026;-77
2022/04/24 03:46:16;;;;;;;9.57;7.55;;;;;;;8.93;61.23;100063.38;5235040;28;20030;-78
2022/04/24 03:48:47;;;;;;;7.87;7.07;;;;;;;8.97;60.86;100059.84;5235324;28;20167;-76
2022/04/24 03:51:18;;;;;;;9.90;7.87;;;;;;;8.81;61.55;100061.00;5235237;28;20465;-77
2022/04/24 03:53:50;;;;;;;11.80;8.57;;;;;;;8.71;62.17;100055.09;5246256;28;20037;-76
2022/04/24 03:56:21;;;;;;;9.07;7.83;;;;;;;8.64;62.55;100053.50;5255548;28;20020;-77
2022/04/24 03:58:52;;;;;;;9.73;7.60;;;;;;;8.62;62.56;100061.31;5237483;28;20036;-77
2022/04/24 04:01:24;;;;;;;8.43;7.23;;;;;;;8.56;63.05;100058.81;5234108;28;20067;-76
2022/04/24 04:03:57;;;;;;;8.77;7.87;;;;;;;8.48;63.20;100060.66;5240702;28;20040;-76
2022/04/24 04:06:29;;;;;;;11.63;8.45;;;;;;;8.37;63.88;100056.47;5255271;28;20044;-75
2022/04/24 04:09:01;;;;;;;11.33;8.43;;;;;;;8.33;63.86;100059.16;5255238;28;20151;-76
2022/04/24 04:11:33;;;;;;;8.70;7.65;;;;;;;8.22;64.31;100057.56;5254837;28;20029;-77
2022/04/24 04:14:04;;;;;;;9.77;8.77;;;;;;;8.17;64.77;100056.75;5253194;28;20075;-76
2022/04/24 04:16:36;;;;;;;14.27;7.35;;;;;;;8.18;64.88;100055.06;5255317;28;20213;-76
2022/04/24 04:19:07;;;;;;;14.27;9.47;;;;;;;8.11;65.17;100059.44;5255128;28;20025;-76
2022/04/24 04:21:39;;;;;;;12.43;8.30;;;;;;;8.03;65.37;100056.97;5254839;28;20090;-75
2022/04/24 04:24:11;;;;;;;10.23;8.67;;;;;;;8.00;65.85;100059.63;5254914;28;20092;-76
2022/04/24 04:26:42;;;;;;;11.10;8.40;;;;;;;7.99;66.05;100068.28;5252845;28;20041;-77
2022/04/24 04:29:13;;;;;;;11.03;8.83;;;;;;;7.88;66.89;100067.56;5254562;28;20073;-76
2022/04/24 04:31:45;;;;;;;12.87;9.20;;;;;;;7.96;66.29;100068.31;5253927;28;20021;-78
2022/04/24 04:34:16;;;;;;;11.77;8.93;;;;;;;7.87;67.04;100077.97;5254751;28;20031;-78
2022/04/24 04:36:48;;;;;;;9.57;8.03;;;;;;;7.92;67.00;100074.44;5254670;28;20162;-77
2022/04/24 04:39:20;;;;;;;13.00;9.10;;;;;;;7.90;67.11;100076.16;5254538;28;20122;-75
2022/04/24 04:41:51;;;;;;;11.60;8.80;;;;;;;7.88;67.08;100075.34;5254389;28;20143;-74
2022/04/24 04:44:23;;;;;;;11.30;8.33;;;;;;;7.92;67.27;100082.22;5252319;28;20033;-76
2022/04/24 04:46:54;;;;;;;12.40;9.80;;;;;;;7.88;67.67;100083.13;5236781;28;20036;-77
2022/04/24 04:49:25;;;;;;;9.83;8.47;;;;;;;7.88;67.82;100079.69;5254465;28;20036;-75
2022/04/24 04:51:57;;;;;;;9.93;8.80;;;;;;;7.87;67.86;100080.56;5254558;28;20028;-76
2022/04/24 04:54:28;;;;;;;8.43;7.53;;;;;;;7.83;68.00;100084.94;5253385;28;20056;-74
2022/04/24 04:57:00;;;;;;;9.57;7.97;;;;;;;7.88;68.24;100085.72;5254127;28;20025;-76
2022/04/24 04:59:31;;;;;;;12.30;9.03;;;;;;;7.82;68.42;100091.00;5253870;28;20434;-76
2022/04/24 05:02:02;;;;;;;21.33;8.90;;;;;;;7.89;68.15;100089.16;5254200;28;20039;-76
2022/04/24 05:04:34;;;;;;;10.53;8.40;;;;;;;7.88;68.63;100096.09;5246342;28;20049;-76
2022/04/24 05:07:05;;;;;;;9.70;8.70;;;;;;;7.83;68.70;100090.97;5233302;28;20365;-76
2022/04/24 05:09:37;;;;;;;9.63;8.43;;;;;;;7.89;68.61;100100.44;5233469;28;20034;-77
2022/04/24 05:12:10;;;;;;;11.98;8.70;;;;;;;7.87;68.88;100101.31;5236424;28;20035;-76
2022/04/24 05:14:41;;;;;;;10.40;9.20;;;;;;;7.94;68.58;100102.97;5243937;28;20068;-76
2022/04/24 05:17:15;;;;;;;10.23;8.20;;;;;;;7.95;68.46;100109.84;5258311;28;20045;-77
2022/04/24 05:19:46;;;;;;;9.63;8.32;;;;;;;7.94;68.98;100113.34;5258066;28;20033;-76
2022/04/24 05:22:18;;;;;;;11.23;8.67;;;;;;;7.98;68.89;100109.81;5258204;28;20499;-76
2022/04/24 05:24:49;;;;;;;10.43;8.63;;;;;;;8.00;68.94;100114.13;5256801;28;20031;-75
2022/04/24 05:27:20;;;;;;;13.57;9.67;;;;;;;8.01;68.52;100117.56;5258020;28;20041;-76
2022/04/24 05:29:52;;;;;;;10.43;7.93;;;;;;;8.03;68.72;100113.22;5258033;28;20583;-77
2022/04/24 05:32:23;;;;;;;11.03;8.10;;;;;;;8.10;68.87;100119.16;5257720;28;20029;-75
2022/04/24 05:34:54;;;;;;;11.03;8.00;;;;;;;8.16;68.56;100119.97;5258634;28;20903;-77
2022/04/24 05:37:26;;;;;;;8.50;7.57;;;;;;;8.19;68.47;100126.84;5257348;28;20506;-76
2022/04/24 05:39:57;;;;;;;11.90;7.67;;;;;;;8.27;67.99;100131.94;5258675;28;20148;-77
2022/04/24 05:42:28;;;;;;;11.23;8.17;;;;;;;8.29;67.95;100125.84;5258585;28;20037;-76
2022/04/24 05:45:01;;;;;;;12.80;8.20;;;;;;;8.37;67.75;100128.31;5258258;28;20029;-76
2022/04/24 05:47:32;;;;;;;9.35;7.75;;;;;;;8.39;67.74;100126.59;5256983;28;20498;-77
2022/04/24 05:50:04;;;;;;;9.47;8.13;;;;;;;8.47;67.79;100127.34;5257713;28;20033;-76
2022/04/24 05:52:35;;;;;;;9.07;7.67;;;;;;;8.54;67.66;100135.91;5257910;28;20461;-77
2022/04/24 05:55:07;;;;;;;12.17;7.43;;;;;;;8.62;67.16;100141.00;5257947;28;20031;-78
2022/04/24 05:57:39;;;;;;;12.45;7.63;;;;;;;8.65;67.17;100136.59;5255986;28;20502;-77
2022/04/24 06:00:12;;;;;;;13.27;7.77;;;;;;;8.73;67.02;100128.69;5257356;28;20037;-77
2022/04/24 06:02:44;;;;;;;8.98;6.50;;;;;;;8.80;66.86;100138.09;5257208;28;20496;-76
2022/04/24 06:05:16;;;;;;;10.23;7.33;;;;;;;8.86;66.71;100143.22;5238507;28;20055;-76
2022/04/24 06:07:48;;;;;;;9.70;6.87;;;;;;;8.92;66.16;100143.13;5258013;28;20056;-77
2022/04/24 06:10:19;;;;;;;10.23;8.05;;;;;;;9.00;66.02;100148.19;5257990;28;20107;-77
2022/04/24 06:12:55;;;;;;;9.10;7.77;;;;;;;9.06;65.36;100150.66;5257804;28;20033;-77
2022/04/24 06:15:27;;;;;;;8.32;7.30;;;;;;;9.15;64.69;100154.03;5256446;28;20029;-77
2022/04/24 06:17:59;;;;;;;13.63;7.40;;;;;;;9.19;65.22;100158.28;5256958;28;20029;-77
2022/04/24 06:20:30;;;;;;;13.53;8.07;;;;;;;9.27;64.74;100141.66;5257539;28;20396;-77
2022/04/24 06:23:02;;;;;;;9.37;7.37;;;;;;;9.34;64.36;100146.72;5256175;28;20025;-76
2022/04/24 06:25:34;;;;;;;9.47;7.20;;;;;;;9.38;64.10;100144.06;5255290;28;20036;-80
2022/04/24 06:28:06;;;;;;;9.90;6.78;;;;;;;9.47;63.00;100148.25;5237281;28;20032;-78
2022/04/24 06:30:41;;;;;;;10.70;7.57;;;;;;;9.56;63.18;100144.59;5236297;28;20473;-76
2022/04/24 06:33:13;;;;;;;11.00;7.68;;;;;;;9.60;62.73;100139.31;5235978;28;20037;-75
2022/04/24 06:35:48;;;;;;;12.13;7.80;;;;;;;9.67;62.46;100147.84;5222369;28;20028;-76
2022/04/24 06:38:22;;;;;;;9.20;7.15;;;;;;;9.73;62.05;100158.16;5257063;28;20523;-77
2022/04/24 06:40:53;;;;;;;12.23;7.47;;;;;;;9.78;61.61;100150.25;5256818;28;20156;-78
2022/04/24 06:43:24;;;;;;;7.83;7.03;;;;;;;9.88;61.37;100149.19;5256880;28;20037;-79
2022/04/24 06:45:56;;;;;;;9.53;6.90;;;;;;;9.94;61.20;100159.47;5256959;28;20013;-75
2022/04/24 06:48:27;;;;;;;8.70;6.23;;;;;;;9.99;61.05;100154.19;5256827;28;20032;-76
2022/04/24 06:50:58;;;;;;;9.73;7.00;;;;;;;10.11;60.71;100166.06;5237620;28;20021;-76
2022/04/24 06:53:30;;;;;;;10.40;6.77;;;;;;;10.11;60.06;100159.13;5256894;28;20063;-77
2022/04/24 06:56:02;;;;;;;10.25;6.93;;;;;;;10.21;59.88;100162.41;5258193;28;20039;-75
2022/04/24 06:58:33;;;;;;;8.43;6.30;;;;;;;10.29;59.88;100160.50;5277511;28;20024;-79
2022/04/24 07:01:05;;;;;;;12.90;6.53;;;;;;;10.36;58.61;100163.84;5266639;28;20120;-75
2022/04/24 07:03:36;;;;;;;11.53;6.80;;;;;;;10.47;58.59;100158.41;5257334;28;20032;-80
2022/04/24 07:06:07;;;;;;;8.33;7.27;;;;;;;10.60;58.11;100156.38;5257604;28;20039;-79
2022/04/24 07:08:39;;;;;;;9.90;6.83;;;;;;;10.71;58.38;100155.22;5256022;28;20151;-76
2022/04/24 07:11:10;;;;;;;10.17;6.97;;;;;;;10.82;57.85;100160.19;5256501;28;20116;-78
2022/04/24 07:13:41;;;;;;;9.13;6.40;;;;;;;10.91;57.74;100164.31;5255999;28;20506;-75
2022/04/24 07:16:13;;;;;;;12.73;7.57;;;;;;;11.01;57.65;100165.84;5256055;28;20070;-75
2022/04/24 07:18:44;;;;;;;9.40;7.10;;;;;;;11.18;57.53;100168.00;5256261;28;20125;-79
2022/04/24 07:21:16;;;;;;;10.80;7.27;;;;;;;11.34;57.20;100165.88;5254383;28;20024;-79
2022/04/24 07:23:47;;;;;;;11.37;7.77;;;;;;;11.41;56.47;100164.78;5250088;28;20029;-79
2022/04/24 07:26:18;;;;;;;10.87;7.10;;;;;;;11.39;55.91;100163.97;5256693;28;20036;-78
2022/04/24 07:28:50;;;;;;;10.33;6.97;;;;;;;11.49;56.44;100178.53;5256529;28;20067;-78
2022/04/24 07:31:21;;;;;;;10.03;7.13;;;;;;;11.65;55.88;100171.13;5256840;28;20040;-78
2022/04/24 07:33:55;;;;;;;8.43;6.33;;;;;;;11.65;54.08;100165.88;5253144;28;20029;-80
2022/04/24 07:36:26;;;;;;;10.73;7.70;;;;;;;11.80;54.79;100177.69;5269972;28;20430;-79
2022/04/24 07:38:58;;;;;;;9.00;6.77;;;;;;;11.94;54.37;100182.53;5271771;28;20035;-76
2022/04/24 07:41:29;;;;;;;11.00;7.47;;;;;;;11.98;53.64;100181.56;5250401;28;20041;-76
2022/04/24 07:44:00;;;;;;;8.60;7.50;;;;;;;12.18;53.60;100180.13;5247579;28;20025;-78
2022/04/24 07:46:34;;;;;;;9.90;6.90;;;;;;;12.34;52.93;100181.41;5244146;28;20377;-75
2022/04/24 07:49:05;;;;;;;8.85;6.50;;;;;;;12.51;53.02;100172.19;5234636;28;20477;-77
2022/04/24 07:51:36;;;;;;;11.03;7.33;;;;;;;12.68;52.65;100169.91;5234778;28;20079;-78
2022/04/24 07:54:08;;;;;;;9.40;7.63;;;;;;;12.65;51.81;100171.78;5234638;28;20040;-78
2022/04/24 07:56:39;;;;;;;8.50;7.67;;;;;;;12.77;52.00;100176.63;5252174;28;20089;-77
2022/04/24 07:59:10;;;;;;;7.60;6.80;;;;;;;12.93;51.59;100180.47;5256478;28;20047;-80
2022/04/24 08:01:42;;;;;;;9.97;7.20;;;;;;;13.06;51.05;100180.91;5255726;28;20044;-75
2022/04/24 08:04:13;;;;;;;7.47;6.73;;;;;;;13.21;50.82;100176.94;5255375;28;20120;-75
2022/04/24 08:06:44;;;;;;;11.93;7.30;;;;;;;13.30;50.09;100188.88;5253693;28;20029;-75
2022/04/24 08:09:15;;;;;;;9.27;7.43;;;;;;;13.45;50.48;100183.13;5254832;28;20043;-76
2022/04/24 08:11:47;;;;;;;8.03;6.33;;;;;;;13.65;50.06;100186.81;5237523;28;20140;-80
2022/04/24 08:14:19;;;;;;;11.67;6.97;;;;;;;13.83;49.76;100185.31;5255317;28;20035;-77
2022/04/24 08:16:51;;;;;;;;;;;;;;;13.94;48.60;100192.78;5251371;28;20033;-75
2022/04/24 08:19:22;;;;;;;7.97;6.30;;;;;;;13.90;48.45;100185.97;5254881;28;19916;-78
2022/04/24 08:21:53;;;;;;;11.63;7.07;;;;;;;14.07;48.28;100190.56;5255503;28;20472;-75
2022/04/24 08:24:25;;;;;;;9.90;6.97;;;;;;;14.08;47.90;100189.66;5254767;28;20032;-79
2022/04/24 08:26:56;;;;;;;7.67;6.87;;;;;;;14.26;47.43;100182.88;5234848;28;20160;-76
2022/04/24 08:29:27;;;;;;;11.90;6.97;;;;;;;14.45;47.03;100189.13;5255189;28;20050;-77
2022/04/24 08:31:59;;;;;;;12.47;8.13;;;;;;;14.57;46.83;100187.78;5255293;28;20169;-76
2022/04/24 08:34:30;;;;;;;13.27;7.40;;;;;;;14.73;46.27;100182.84;5246960;28;20562;-76
2022/04/24 08:37:01;;;;;;;9.33;7.43;;;;;;;14.89;45.90;100190.94;5235359;28;20078;-76
2022/04/24 08:39:33;;;;;;;9.57;7.10;;;;;;;15.00;46.29;100194.00;5235757;28;20584;-76
2022/04/24 08:42:07;;;;;;;9.43;7.77;;;;;;;15.03;45.67;100199.13;5235026;28;20045;-76
2022/04/24 08:44:40;;;;;;;12.02;8.15;;;;;;;15.14;45.18;100194.28;5238328;28;20476;-78
2022/04/24 08:47:15;;;;;;;13.43;8.20;;;;;;;15.35;45.46;100198.72;5255583;28;20029;-75
2022/04/24 08:49:46;;;;;;;8.52;7.40;;;;;;;15.46;45.05;100197.34;5255554;28;20017;-76
2022/04/24 08:52:20;;;;;;;10.07;8.70;;;;;;;15.61;44.85;100193.19;5255590;28;20037;-79
2022/04/24 08:54:52;;;;;;;10.00;9.00;;;;;;;15.55;43.13;100198.72;5253790;28;20454;-79
2022/04/24 08:57:30;;;;;;;9.07;7.22;;;;;;;15.84;44.09;100199.25;5254363;28;20128;-79
2022/04/24 09:00:04;;;;;;;11.70;7.80;;;;;;;15.86;43.21;100200.06;5255003;28;20270;-81
2022/04/24 09:02:36;;;;;;;13.05;8.48;;;;;;;15.99;43.33;100200.38;5254332;28;20025;-78
2022/04/24 09:05:07;;;;;;;8.50;7.33;;;;;;;16.00;41.78;100200.31;5255243;28;20036;-80
2022/04/24 09:07:43;;;;;;;10.07;7.57;;;;;;;16.01;41.70;100203.78;5253807;28;20032;-74
2022/04/24 09:10:20;;;;;;;12.23;8.40;;;;;;;16.09;41.42;100201.66;5254700;28;20025;-78
2022/04/24 09:12:52;;;;;;;10.43;7.50;;;;;;;16.21;41.37;100200.22;5255014;28;20098;-77
2022/04/24 09:15:24;;;;;;;;;;;;;;;16.48;41.86;100195.47;5237032;28;20025;-80
2022/04/24 09:18:02;;;;;;;12.30;7.37;;;;;;;16.52;40.78;100204.09;5254015;28;19920;-78
2022/04/24 09:20:41;;;;;;;9.80;7.25;;;;;;;16.61;40.27;100197.53;5254949;28;21004;-77
2022/04/24 09:23:12;;;;;;;11.38;7.20;;;;;;;16.64;40.53;100194.78;5254748;28;20029;-76
2022/04/24 09:25:44;;;;;;;14.53;7.97;;;;;;;17.07;40.54;100193.56;5254028;28;20051;-77
2022/04/24 09:28:16;;;;;;;13.10;9.30;;;;;;;17.53;39.78;100197.47;5253576;28;20542;-76
2022/04/24 09:30:48;;;;;;;15.67;8.50;;;;;;;18.12;37.31;100203.22;5253765;28;20025;-78
2022/04/24 09:33:20;;;;;;;10.65;7.97;;;;;;;19.04;35.59;100200.75;5254304;28;20520;-79
2022/04/24 09:35:55;;;;;;;10.80;7.97;;;;;;;20.13;33.61;100209.31;5254654;28;20039;-79
2022/04/24 09:38:26;;;;;;;11.55;7.82;;;;;;;20.50;33.57;100198.22;5252562;28;20036;-80
2022/04/24 09:40:57;;;;;;;9.07;8.17;;;;;;;21.24;30.90;100198.75;5253573;28;20573;-76
2022/04/24 09:43:29;;;;;;;9.13;7.63;;;;;;;21.86;30.83;100200.75;5254343;28;20064;-77
2022/04/24 09:46:00;;;;;;;10.30;7.53;;;;;;;22.38;30.33;100206.88;5236781;28;21015;-76
2022/04/24 09:48:31;;;;;;;9.67;8.57;;;;;;;22.56;28.78;100205.53;5253732;28;20071;-78
2022/04/24 09:51:03;;;;;;;16.57;8.50;;;;;;;22.59;27.52;100193.88;5255196;28;20060;-78
2022/04/24 09:53:42;;;;;;;9.30;7.32;;;;;;;22.93;28.54;100205.50;5255270;28;20044;-81
2022/04/24 09:56:17;;;;;;;9.90;8.38;;;;;;;23.22;28.19;100197.22;5254014;28;20037;-76
2022/04/24 09:58:49;;;;;;;10.75;7.90;;;;;;;23.04;28.00;100203.84;5254770;28;20029;-75
2022/04/24 10:01:22;;;;;;;10.13;8.95;;;;;;;22.56;29.00;100194.09;5257926;28;20025;-78
2022/04/24 10:03:55;;;;;;;9.10;8.20;;;;;;;22.91;27.52;100202.13;5240065;28;20032;-77
2022/04/24 10:06:26;;;;;;;9.80;8.65;;;;;;;23.26;27.17;100203.13;5258013;28;20021;-80
2022/04/24 10:09:00;;;;;;;10.63;8.67;;;;;;;22.45;27.91;100202.81;5257469;28;20392;-77
2022/04/24 10:11:31;;;;;;;11.20;8.30;;;;;;;23.29;28.30;100200.25;5237595;28;20039;-76
2022/04/24 10:14:07;;;;;;;9.30;8.10;;;;;;;23.71;27.41;100205.06;5257413;28;20454;-77
2022/04/24 10:17:01;;;;;;;10.88;8.20;;;;;;;24.84;26.92;100202.38;5257578;28;20110;-78
2022/04/24 10:19:36;;;;;;;10.13;8.85;;;;;;;24.90;24.97;100207.22;5257344;28;20040;-76
2022/04/24 10:22:22;;;;;;;9.68;7.82;;;;;;;25.00;25.17;100204.63;5256189;28;20369;-78
2022/04/24 10:25:03;;;;;;;14.45;8.57;;;;;;;25.20;24.49;100198.47;5257569;28;20106;-78
2022/04/24 10:27:41;;;;;;;9.45;8.52;;;;;;;24.91;25.86;100204.41;5252275;28;20059;-77
2022/04/24 10:30:24;;;;;;;10.60;8.15;;;;;;;25.55;24.67;100207.16;5236366;28;20033;-79
2022/04/24 10:33:18;;;;;;;10.85;9.70;;;;;;;26.08;24.68;100215.06;5219007;28;20021;-77
2022/04/24 10:35:53;;;;;;;9.57;8.10;;;;;;;25.98;22.91;100215.03;5236172;28;20022;-78
2022/04/24 10:38:24;;;;;;;9.93;8.00;;;;;;;25.72;22.79;100206.59;5241603;28;20114;-80
2022/04/24 10:40:57;;;;;;;9.55;7.43;;;;;;;26.66;22.42;100208.25;5256596;28;20485;-78
2022/04/24 10:44:06;;;;;;;11.00;7.75;;;;;;;27.33;23.19;100209.31;5256302;28;20025;-79
2022/04/24 10:46:39;;;;;;;9.52;7.22;;;;;;;27.42;21.36;100205.78;5256334;28;20476;-76
2022/04/24 10:49:12;;;;;;;8.95;7.30;;;;;;;26.55;22.43;100207.38;5252179;28;20052;-78
2022/04/24 10:51:57;;;;;;;9.43;6.90;;;;;;;26.33;22.15;100210.25;5255700;28;20028;-78
2022/04/24 10:54:40;;;;;;;10.65;6.32;;;;;;;27.71;22.66;100204.00;5254237;28;20301;-80
2022/04/24 10:57:23;;;;;;;11.93;6.88;;;;;;;27.74;21.64;100222.47;5234209;28;20029;-76
2022/04/24 10:59:55;;;;;;;9.82;7.05;;;;;;;27.55;21.12;100215.34;5240693;28;20025;-77
2022/04/24 11:02:30;;;;;;;7.70;6.30;;;;;;;27.41;20.35;100208.59;5257238;28;20036;-79
2022/04/24 11:05:06;;;;;;;10.63;6.13;;;;;;;26.99;20.97;100193.66;5243363;28;20039;-77
2022/04/24 11:07:38;;;;;;;7.28;5.93;;;;;;;27.32;20.50;100206.78;5245700;28;20094;-78
2022/04/24 11:10:10;;;;;;;;;;;;;;;29.69;19.92;100207.88;5255532;28;20104;-77
2022/04/24 11:12:42;;;;;;;9.10;6.43;;;;;;;26.88;21.28;100205.34;5254426;28;20458;-78
2022/04/24 11:15:14;;;;;;;;;;;;;;;29.06;19.71;100207.03;5255846;28;20021;-78
2022/04/24 11:17:45;;;;;;;12.63;6.47;;;;;;;28.24;20.50;100210.63;5255797;28;19916;-76
2022/04/24 11:20:18;;;;;;;7.05;6.35;;;;;;;28.69;19.50;100213.38;5254052;28;20059;-76
2022/04/24 11:22:53;;;;;;;11.15;6.40;;;;;;;29.06;20.12;100208.84;5254688;28;20060;-77
2022/04/24 11:25:27;;;;;;;8.18;6.80;;;;;;;29.16;18.93;100200.72;5251315;28;20089;-79
2022/04/24 11:27:59;;;;;;;10.05;5.95;;;;;;;28.18;21.19;100212.91;5234922;28;20416;-78
2022/04/24 11:30:37;;;;;;;9.65;6.97;;;;;;;27.13;21.27;100212.94;5255205;28;20031;-78
2022/04/24 11:33:08;;;;;;;11.75;6.70;;;;;;;28.18;20.79;100217.44;5237055;28;20033;-75
2022/04/24 11:35:40;;;;;;;;;;;;;;;30.14;18.58;100211.31;5234536;28;20495;-77
2022/04/24 11:38:13;;;;;;;9.23;6.07;;;;;;;28.71;19.86;100208.69;5235054;28;19927;-79
2022/04/24 11:40:48;;;;;;;6.53;5.82;;;;;;;28.81;20.46;100202.44;5235419;28;20049;-78
2022/04/24 11:43:20;;;;;;;8.63;5.30;;;;;;;29.09;19.57;100214.78;5237506;28;20053;-83
2022/04/24 11:51:32;;;;;;;7.82;6.07;;;;;;;27.54;20.87;100209.13;5234811;28;20132;-77
2022/04/24 11:54:04;;;;;;;;;;;;;;;29.58;19.95;100205.47;5238227;28;20902;-76
2022/04/24 11:56:37;;;;;;;6.30;5.63;;;;;;;29.55;19.35;100195.03;5255412;28;19935;-74